createdAt,value
2022-11-10T00:04:55.162Z,46.90
2022-11-10T00:10:17.244Z,47.35
2022-11-10T00:15:39.006Z,45.80
2022-11-10T00:21:05.873Z,47.92
2022-11-10T00:26:27.682Z,44.22
2022-11-10T00:31:49.667Z,51.25
2022-11-10T00:37:11.754Z,48.75
2022-11-10T00:42:33.617Z,47.80
2022-11-10T00:47:55.447Z,46.72
2022-11-10T00:53:17.226Z,47.08
2022-11-10T00:58:39.013Z,43.08
2022-11-10T01:04:00.899Z,44.22
2022-11-10T01:09:22.730Z,46.25
2022-11-10T01:14:47.642Z,45.13
2022-11-10T01:20:10.361Z,45.00
2022-11-10T01:25:32.163Z,46.55
2022-11-10T01:31:01.939Z,46.60
2022-11-10T01:36:23.829Z,44.40
2022-11-10T01:41:45.744Z,41.47
2022-11-10T01:47:08.009Z,43.78
2022-11-10T01:52:29.942Z,47.60
2022-11-10T01:57:52.062Z,46.08
2022-11-10T02:03:16.574Z,45.95
2022-11-10T02:08:38.728Z,46.88
2022-11-10T02:14:01.106Z,46.47
2022-11-10T02:19:25.170Z,43.70
2022-11-10T02:24:47.164Z,43.13
2022-11-10T02:30:09.383Z,47.92
2022-11-10T02:35:31.207Z,41.38
2022-11-10T02:40:53.081Z,43.33
2022-11-10T02:46:14.931Z,45.55
2022-11-10T02:51:36.840Z,44.20
2022-11-10T02:56:58.638Z,45.05
2022-11-10T03:02:20.478Z,46.53
2022-11-10T03:07:42.589Z,44.55
2022-11-10T03:13:04.603Z,42.72
2022-11-10T03:18:26.472Z,44.03
2022-11-10T03:23:48.323Z,44.50
2022-11-10T03:29:10.088Z,44.50
2022-11-10T03:34:32.126Z,42.83
2022-11-10T03:39:53.995Z,44.00
2022-11-10T03:45:16.098Z,47.15
2022-11-10T03:50:38.018Z,40.95
2022-11-10T03:56:01.273Z,44.72
2022-11-10T04:01:23.352Z,43.45
2022-11-10T04:06:45.216Z,45.20
2022-11-10T04:12:07.091Z,43.25
2022-11-10T04:17:28.934Z,42.20
2022-11-10T04:22:50.776Z,44.17
2022-11-10T04:28:12.593Z,45.85
2022-11-10T04:33:35.607Z,46.22
2022-11-10T04:38:57.989Z,45.88
2022-11-10T04:44:19.794Z,46.65
2022-11-10T04:49:41.593Z,46.63
2022-11-10T04:55:03.592Z,44.60
2022-11-10T05:00:25.449Z,46.63
2022-11-10T05:05:47.280Z,46.70
2022-11-10T05:11:10.198Z,46.63
2022-11-10T05:16:32.021Z,44.25
2022-11-10T05:21:53.899Z,49.42
2022-11-10T05:27:15.776Z,43.30
2022-11-10T05:32:37.721Z,44.60
2022-11-10T05:37:59.561Z,42.00
2022-11-10T05:43:21.826Z,48.60
2022-11-10T05:48:44.013Z,48.15
2022-11-10T05:54:05.885Z,47.65
2022-11-10T05:59:27.663Z,46.20
2022-11-10T06:04:49.462Z,47.38
2022-11-10T06:10:11.266Z,45.75
2022-11-10T06:15:33.755Z,47.33
2022-11-10T06:27:22.579Z,45.00
2022-11-10T06:32:57.142Z,46.22
2022-11-10T06:38:18.873Z,47.63
2022-11-10T06:43:40.672Z,42.30
2022-11-10T06:49:02.535Z,47.08
2022-11-10T06:54:24.308Z,44.38
2022-11-10T06:59:46.132Z,44.13
2022-11-10T07:05:08.532Z,44.97
2022-11-10T07:10:30.742Z,45.00
2022-11-10T07:15:52.519Z,45.08
2022-11-10T07:21:14.636Z,46.55
2022-11-10T07:26:36.481Z,42.20
2022-11-10T07:31:58.274Z,44.03
2022-11-10T07:37:20.080Z,44.38
2022-11-10T07:42:41.921Z,40.22
2022-11-10T07:48:06.680Z,38.92
2022-11-10T07:53:28.468Z,40.35
2022-11-10T07:58:50.249Z,44.03
2022-11-10T08:04:12.105Z,45.75
2022-11-10T08:09:34.779Z,43.28
2022-11-10T08:14:56.578Z,36.25
2022-11-10T08:20:18.434Z,37.22
2022-11-10T08:25:40.889Z,43.67
2022-11-10T08:31:05.788Z,37.58
2022-11-10T08:36:28.209Z,40.00
2022-11-10T08:41:50.032Z,39.42
2022-11-10T08:47:11.889Z,35.33
2022-11-10T08:52:33.789Z,39.88
2022-11-10T08:58:00.191Z,37.00
2022-11-10T09:03:25.080Z,34.38
2022-11-10T09:08:47.178Z,34.03
2022-11-10T09:14:09.898Z,33.40
2022-11-10T09:19:31.794Z,32.22
2022-11-10T09:24:53.609Z,35.92
2022-11-10T09:30:17.936Z,32.83
2022-11-10T09:35:40.168Z,34.00
2022-11-10T09:41:07.102Z,36.60
2022-11-10T09:46:37.267Z,32.42
2022-11-10T09:52:01.853Z,30.50
2022-11-10T09:57:26.732Z,35.08
2022-11-10T10:02:53.807Z,32.15
2022-11-10T10:08:31.872Z,31.25
2022-11-10T10:14:09.974Z,29.88
2022-11-10T10:19:57.499Z,30.85
2022-11-10T10:25:23.574Z,29.77
2022-11-10T10:30:45.652Z,28.40
2022-11-10T10:36:15.245Z,27.15
2022-11-10T10:41:37.448Z,26.95
2022-11-10T10:47:01.561Z,27.40
2022-11-10T10:52:23.429Z,25.23
2022-11-10T10:57:56.665Z,22.30
2022-11-10T11:03:49.793Z,25.65
2022-11-10T11:09:14.646Z,25.63
2022-11-10T11:14:38.655Z,21.88
2022-11-10T11:20:04.116Z,23.67
2022-11-10T11:25:34.233Z,23.50
2022-11-10T11:31:19.339Z,21.10
2022-11-10T11:37:15.290Z,22.27
2022-11-10T11:43:01.589Z,24.38
2022-11-10T11:48:32.444Z,21.52
2022-11-10T11:53:56.848Z,23.92
2022-11-10T11:59:55.426Z,20.33
2022-11-10T12:05:23.397Z,18.02
2022-11-10T12:11:07.875Z,18.80
2022-11-10T12:16:31.944Z,18.33
2022-11-10T12:22:11.790Z,22.42
2022-11-10T12:27:38.382Z,18.02
2022-11-10T12:39:00.567Z,16.85
2022-11-10T12:44:37.199Z,15.68
2022-11-10T12:50:09.733Z,18.75
2022-11-10T12:55:50.634Z,16.45
2022-11-10T13:01:18.787Z,16.15
2022-11-10T13:06:49.260Z,17.88
2022-11-10T13:12:11.070Z,17.08
2022-11-10T13:17:38.925Z,17.92
2022-11-10T13:23:00.701Z,15.68
2022-11-10T13:28:47.094Z,14.77
2022-11-10T13:39:34.580Z,19.15
2022-11-10T13:45:34.678Z,15.63
2022-11-10T13:51:34.237Z,16.65
2022-11-10T13:57:33.564Z,14.65
2022-11-10T14:02:57.755Z,13.77
2022-11-10T14:08:24.776Z,16.88
2022-11-10T14:13:55.544Z,18.55
2022-11-10T14:19:44.360Z,12.95
2022-11-10T14:25:33.564Z,15.15
2022-11-10T14:30:55.962Z,16.23
2022-11-10T14:36:18.565Z,14.38
2022-11-10T14:41:47.979Z,15.07
2022-11-10T14:47:30.038Z,14.15
2022-11-10T14:53:11.596Z,14.82
2022-11-10T14:58:37.941Z,16.13
2022-11-10T15:04:01.751Z,16.52
2022-11-10T15:09:30.612Z,14.98
2022-11-10T15:15:00.180Z,16.85
2022-11-10T15:20:36.843Z,15.98
2022-11-10T15:25:58.681Z,17.20
2022-11-10T15:31:29.319Z,17.70
2022-11-10T15:37:11.430Z,17.52
2022-11-10T15:42:33.232Z,17.65
2022-11-10T15:47:55.847Z,16.48
2022-11-10T15:53:24.746Z,20.08
2022-11-10T15:58:51.611Z,14.75
2022-11-10T16:04:13.478Z,17.02
2022-11-10T16:09:35.275Z,15.63
2022-11-10T16:14:57.234Z,19.95
2022-11-10T16:20:19.057Z,18.02
2022-11-10T16:25:41.629Z,16.05
2022-11-10T16:31:05.877Z,15.93
2022-11-10T16:36:34.447Z,16.58
2022-11-10T16:41:56.338Z,17.05
2022-11-10T16:47:19.385Z,15.40
2022-11-10T16:52:41.185Z,13.65
2022-11-10T16:58:03.057Z,15.23
2022-11-10T17:03:38.649Z,16.52
2022-11-10T17:09:07.975Z,18.08
2022-11-10T17:14:29.775Z,19.60
2022-11-10T17:19:51.705Z,14.75
2022-11-10T17:25:23.332Z,16.15
2022-11-10T17:30:45.205Z,17.02
2022-11-10T17:36:14.741Z,16.70
2022-11-10T17:41:36.563Z,16.48
2022-11-10T17:46:58.414Z,18.17
2022-11-10T17:52:20.242Z,16.27
2022-11-10T17:57:42.038Z,18.38
2022-11-10T18:03:03.820Z,19.40
2022-11-10T18:08:25.775Z,19.30
2022-11-10T18:13:47.584Z,22.20
2022-11-10T18:19:11.079Z,19.30
2022-11-10T18:24:32.900Z,16.55
2022-11-10T18:29:54.777Z,24.92
2022-11-10T18:35:16.650Z,15.38
2022-11-10T18:40:38.444Z,19.92
2022-11-10T18:46:00.278Z,22.67
2022-11-10T18:51:22.064Z,18.52
2022-11-10T18:56:43.899Z,16.98
2022-11-10T19:02:05.759Z,20.45
2022-11-10T19:07:27.529Z,22.05
2022-11-10T19:12:49.334Z,20.75
2022-11-10T19:18:11.098Z,17.35
2022-11-10T19:23:33.300Z,21.52
2022-11-10T19:28:55.994Z,20.55
2022-11-10T19:34:17.815Z,22.30
2022-11-10T19:39:39.630Z,19.33
2022-11-10T19:45:01.652Z,19.65
2022-11-10T19:50:23.510Z,17.88
2022-11-10T19:55:45.377Z,20.23
2022-11-10T20:01:08.066Z,22.25
2022-11-10T20:06:30.087Z,19.83
2022-11-10T20:11:51.925Z,16.10
2022-11-10T20:17:13.847Z,19.95
2022-11-10T20:22:35.726Z,17.83
2022-11-10T20:27:58.256Z,17.83
2022-11-10T20:33:21.690Z,23.02
2022-11-10T20:38:43.971Z,18.90
2022-11-10T20:44:05.783Z,22.27
2022-11-10T20:49:27.666Z,20.30
2022-11-10T20:54:49.714Z,23.83
2022-11-10T21:00:11.868Z,20.02
2022-11-10T21:05:33.638Z,19.23
2022-11-10T21:11:01.426Z,22.88
2022-11-10T21:16:23.248Z,18.95
2022-11-10T21:21:45.047Z,22.20
2022-11-10T21:27:06.921Z,23.35
2022-11-10T21:32:28.736Z,25.55
2022-11-10T21:37:50.519Z,21.85
2022-11-10T21:43:12.283Z,21.08
2022-11-10T21:48:34.961Z,18.83
2022-11-10T21:53:56.779Z,19.60
2022-11-10T21:59:18.591Z,22.55
2022-11-10T22:04:40.470Z,20.02
2022-11-10T22:10:02.264Z,23.15
2022-11-10T22:15:24.309Z,21.08
2022-11-10T22:20:46.317Z,19.35
2022-11-10T22:26:08.121Z,20.35
2022-11-10T22:31:32.918Z,18.90
2022-11-10T22:36:54.758Z,24.15
2022-11-10T22:42:16.545Z,18.98
2022-11-10T22:47:38.566Z,25.10
2022-11-10T22:53:00.342Z,22.52
2022-11-10T22:58:22.114Z,24.60
2022-11-10T23:03:43.984Z,18.58
2022-11-10T23:09:06.057Z,23.73
2022-11-10T23:14:27.847Z,19.58
2022-11-10T23:19:49.685Z,20.23
2022-11-10T23:25:11.490Z,18.70
2022-11-10T23:30:33.300Z,19.20
2022-11-10T23:35:55.143Z,18.48
2022-11-10T23:41:19.278Z,21.88
2022-11-10T23:46:41.075Z,20.65
2022-11-10T23:52:02.921Z,21.17
2022-11-10T23:57:24.852Z,22.27
